Time;durP1;ratioP1;P1;durP2;ratioP2;P2;SDS_P1;SDS_P2;PMS_P1;PMS_P2;Temp;Humidity;BMP_temperature;BMP_pressure;BME280_temperature;BME280_humidity;BME280_pressure;Samples;Min_cycle;Max_cycle;Signal;HPM_P1;HPM_P2
2022/12/21 00:01:38;;;;;;;28.48;22.50;;;;;;;;;;5056005;28;20065;-76
2022/12/21 00:04:04;;;;;;;28.05;22.63;;;;;;;;;;5057620;28;20072;-76
2022/12/21 00:06:33;;;;;;;31.67;23.92;;;;;;;;;;5055789;28;20025;-75
2022/12/21 00:09:00;;;;;;;28.55;23.10;;;;;;;;;;5057536;28;20029;-77
2022/12/21 00:11:26;;;;;;;28.55;22.90;;;;;;;;;;5058399;28;20033;-76
2022/12/21 00:13:52;;;;;;;30.38;22.33;;;;;;;;;;5055646;28;20021;-75
2022/12/21 00:16:20;;;;;;;28.52;22.67;;;;;;;;;;5054870;28;20382;-76
2022/12/21 00:18:46;;;;;;;26.10;21.50;;;;;;;;;;5055188;28;20104;-76
2022/12/21 00:21:16;;;;;;;28.15;21.23;;;;;;;;;;5055186;28;20528;-76
2022/12/21 00:23:43;;;;;;;28.55;21.50;;;;;;;;;;5055164;28;20024;-76
2022/12/21 00:26:10;;;;;;;27.75;21.95;;;;;;;;;;5068467;28;20044;-76
2022/12/21 00:28:36;;;;;;;30.20;21.80;;;;;;;;;;5055020;28;20513;-76
2022/12/21 00:31:07;;;;;;;27.83;21.95;;;;;;;;;;5055437;28;20029;-76
2022/12/21 00:33:33;;;;;;;28.58;21.58;;;;;;;;;;5055781;28;20024;-76
2022/12/21 00:35:59;;;;;;;28.50;21.17;;;;;;;;;;5054907;28;20036;-76
2022/12/21 00:38:25;;;;;;;27.48;21.98;;;;;;;;;;5054911;28;20044;-76
2022/12/21 00:40:55;;;;;;;28.27;21.42;;;;;;;;;;5055502;28;20017;-76
2022/12/21 00:43:21;;;;;;;26.02;20.17;;;;;;;;;;5055370;28;20032;-76
2022/12/21 00:45:47;;;;;;;32.53;24.60;;;;;;;;;;5054213;28;20025;-76
2022/12/21 00:48:13;;;;;;;29.23;21.55;;;;;;;;;;5053104;28;20047;-76
2022/12/21 00:50:39;;;;;;;27.85;21.50;;;;;;;;;;5052933;28;20035;-76
2022/12/21 00:53:05;;;;;;;28.65;21.88;;;;;;;;;;5054559;28;20056;-75
2022/12/21 00:55:31;;;;;;;31.55;22.92;;;;;;;;;;5054324;28;20025;-76
2022/12/21 00:57:59;;;;;;;31.95;23.50;;;;;;;;;;5054609;28;20032;-76
2022/12/21 01:00:25;;;;;;;31.23;22.92;;;;;;;;;;5053795;28;20099;-76
2022/12/21 01:02:51;;;;;;;32.08;23.33;;;;;;;;;;5049830;28;20443;-76
2022/12/21 01:05:17;;;;;;;30.95;23.25;;;;;;;;;;5053934;28;20029;-76
2022/12/21 01:07:43;;;;;;;34.00;23.90;;;;;;;;;;5053824;28;20386;-76
2022/12/21 01:10:09;;;;;;;31.33;22.40;;;;;;;;;;5055115;28;20072;-75
2022/12/21 01:12:35;;;;;;;31.65;23.20;;;;;;;;;;5061143;28;20025;-76
2022/12/21 01:15:01;;;;;;;30.65;22.55;;;;;;;;;;5067833;28;20017;-76
2022/12/21 01:17:27;;;;;;;31.73;22.58;;;;;;;;;;5072274;28;20455;-75
2022/12/21 01:19:53;;;;;;;32.50;23.17;;;;;;;;;;5074441;28;20009;-75
2022/12/21 01:22:19;;;;;;;29.58;21.80;;;;;;;;;;5061826;28;20048;-75
2022/12/21 01:24:46;;;;;;;29.42;21.10;;;;;;;;;;5053876;28;20033;-77
2022/12/21 01:27:12;;;;;;;30.45;21.70;;;;;;;;;;5052961;28;20025;-75
2022/12/21 01:29:38;;;;;;;30.02;21.50;;;;;;;;;;5053529;28;20032;-76
2022/12/21 01:32:04;;;;;;;30.23;21.83;;;;;;;;;;5053402;28;20033;-75
2022/12/21 01:34:30;;;;;;;30.10;21.83;;;;;;;;;;5053578;28;20025;-76
2022/12/21 01:36:56;;;;;;;34.17;23.02;;;;;;;;;;5053499;28;20043;-76
2022/12/21 01:39:22;;;;;;;32.17;23.15;;;;;;;;;;5060173;28;20029;-75
2022/12/21 01:41:48;;;;;;;31.73;22.13;;;;;;;;;;5055472;28;20036;-76
2022/12/21 01:44:33;;;;;;;30.80;22.25;;;;;;;;;;5054808;28;20170;-75
2022/12/21 01:46:58;;;;;;;35.70;24.23;;;;;;;;;;5054503;28;20036;-77
2022/12/21 01:49:30;;;;;;;36.60;24.27;;;;;;;;;;5053516;28;20486;-76
2022/12/21 01:51:59;;;;;;;34.80;24.23;;;;;;;;;;5054333;28;20040;-77
2022/12/21 01:54:47;;;;;;;34.85;23.98;;;;;;;;;;5054146;28;20025;-77
2022/12/21 01:57:14;;;;;;;37.58;24.00;;;;;;;;;;5055308;28;20070;-77
2022/12/21 01:59:45;;;;;;;32.00;22.38;;;;;;;;;;5055391;28;20028;-77
2022/12/21 02:02:14;;;;;;;38.08;23.55;;;;;;;;;;5053466;28;20035;-76
2022/12/21 02:04:40;;;;;;;36.40;24.33;;;;;;;;;;5051990;28;20120;-76
2022/12/21 02:07:06;;;;;;;39.58;23.30;;;;;;;;;;5052705;28;20111;-77
2022/12/21 02:09:34;;;;;;;43.13;23.90;;;;;;;;;;5053453;28;20032;-76
2022/12/21 02:12:02;;;;;;;40.17;25.15;;;;;;;;;;5052709;28;20389;-76
2022/12/21 02:14:30;;;;;;;38.35;24.20;;;;;;;;;;5053137;28;20481;-76
2022/12/21 02:17:19;;;;;;;41.20;26.15;;;;;;;;;;5052629;28;20017;-77
2022/12/21 02:19:53;;;;;;;39.63;24.73;;;;;;;;;;5052987;28;20021;-76
2022/12/21 02:22:21;;;;;;;39.05;24.58;;;;;;;;;;5052681;28;20040;-76
2022/12/21 02:24:53;;;;;;;39.92;25.08;;;;;;;;;;5051411;28;20087;-76
2022/12/21 02:27:22;;;;;;;34.85;23.23;;;;;;;;;;5052268;28;20104;-77
2022/12/21 02:29:54;;;;;;;41.33;24.27;;;;;;;;;;5053140;28;20040;-75
2022/12/21 02:32:23;;;;;;;41.70;24.25;;;;;;;;;;5053937;28;20049;-76
2022/12/21 02:35:01;;;;;;;36.95;22.50;;;;;;;;;;5052944;28;20386;-77
2022/12/21 02:37:47;;;;;;;43.95;23.35;;;;;;;;;;5052297;28;20367;-75
2022/12/21 02:40:18;;;;;;;38.00;23.65;;;;;;;;;;5055604;28;20025;-76
2022/12/21 02:45:57;;;;;;;42.35;25.05;;;;;;;;;;5076508;28;20059;-77
2022/12/21 02:48:26;;;;;;;41.45;24.60;;;;;;;;;;5058685;28;20060;-76
2022/12/21 02:50:56;;;;;;;46.22;24.38;;;;;;;;;;5057122;28;20477;-77
2022/12/21 02:53:24;;;;;;;42.97;24.23;;;;;;;;;;5056782;28;20021;-77
2022/12/21 02:55:50;;;;;;;47.45;23.77;;;;;;;;;;5056179;28;20075;-76
2022/12/21 02:58:18;;;;;;;54.55;23.42;;;;;;;;;;5057163;28;20029;-76
2022/12/21 03:00:53;;;;;;;43.33;23.90;;;;;;;;;;5056339;28;20482;-76
2022/12/21 03:03:48;;;;;;;43.00;22.88;;;;;;;;;;5056485;28;20021;-77
2022/12/21 03:06:23;;;;;;;45.22;25.35;;;;;;;;;;5056955;28;20025;-75
2022/12/21 03:09:08;;;;;;;48.40;26.10;;;;;;;;;;5061211;28;20075;-76
2022/12/21 03:11:38;;;;;;;51.28;25.42;;;;;;;;;;5073419;28;20006;-77
2022/12/21 03:14:06;;;;;;;46.58;23.60;;;;;;;;;;5079027;28;20021;-76
2022/12/21 03:16:51;;;;;;;48.63;24.48;;;;;;;;;;5076424;28;20060;-74
2022/12/21 03:19:20;;;;;;;47.72;24.38;;;;;;;;;;5077887;28;20074;-77
2022/12/21 03:21:52;;;;;;;46.58;24.55;;;;;;;;;;5075433;28;20060;-77
2022/12/21 03:24:26;;;;;;;56.20;24.15;;;;;;;;;;5062500;28;20071;-77
2022/12/21 03:27:11;;;;;;;100.15;23.45;;;;;;;;;;5063281;28;20055;-77
2022/12/21 03:29:39;;;;;;;67.57;23.35;;;;;;;;;;5065729;28;20096;-77
2022/12/21 03:32:10;;;;;;;44.88;22.20;;;;;;;;;;5064513;28;20113;-77
2022/12/21 03:34:39;;;;;;;51.50;24.45;;;;;;;;;;5061773;28;20044;-78
2022/12/21 03:37:13;;;;;;;45.45;23.02;;;;;;;;;;5058524;28;20356;-78
2022/12/21 03:39:42;;;;;;;47.58;23.00;;;;;;;;;;5059105;28;20197;-78
2022/12/21 03:42:15;;;;;;;67.55;22.08;;;;;;;;;;5058347;28;20534;-76
2022/12/21 03:44:42;;;;;;;57.80;24.17;;;;;;;;;;5056957;28;20044;-76
2022/12/21 03:47:14;;;;;;;57.38;23.60;;;;;;;;;;5057368;28;20064;-77
2022/12/21 03:49:42;;;;;;;48.67;23.45;;;;;;;;;;5057527;28;20029;-77
2022/12/21 03:52:10;;;;;;;54.00;23.33;;;;;;;;;;5055876;28;20025;-77
2022/12/21 03:54:40;;;;;;;52.65;24.75;;;;;;;;;;5056055;28;20067;-77
2022/12/21 03:57:07;;;;;;;52.80;24.60;;;;;;;;;;5062420;28;20029;-77
2022/12/21 03:59:34;;;;;;;60.55;24.45;;;;;;;;;;5061902;28;20047;-77
2022/12/21 04:02:18;;;;;;;172.60;24.15;;;;;;;;;;5056155;28;20029;-77
2022/12/21 04:04:49;;;;;;;50.85;23.95;;;;;;;;;;5056037;28;20132;-78
2022/12/21 04:07:16;;;;;;;48.10;23.13;;;;;;;;;;5056305;28;20162;-78
2022/12/21 04:09:42;;;;;;;57.85;24.38;;;;;;;;;;5055769;28;20035;-77
2022/12/21 04:14:52;;;;;;;52.75;26.13;;;;;;;;;;5055471;28;20035;-78
2022/12/21 04:17:18;;;;;;;50.58;24.23;;;;;;;;;;5055996;28;20095;-75
2022/12/21 04:19:59;;;;;;;56.13;25.48;;;;;;;;;;5055834;28;20025;-75
2022/12/21 04:28:07;;;;;;;69.85;29.35;;;;;;;;;;5055446;28;20127;-75
2022/12/21 04:30:33;;;;;;;66.32;30.15;;;;;;;;;;5054986;28;20051;-75
2022/12/21 04:32:59;;;;;;;65.75;30.77;;;;;;;;;;5055178;28;20047;-76
2022/12/21 04:35:25;;;;;;;65.40;29.73;;;;;;;;;;5054852;28;20486;-74
2022/12/21 04:37:51;;;;;;;68.50;28.42;;;;;;;;;;5055172;28;20088;-74
2022/12/21 04:40:17;;;;;;;97.03;29.55;;;;;;;;;;5056559;28;20449;-74
2022/12/21 04:42:43;;;;;;;64.78;28.98;;;;;;;;;;5056635;28;20033;-75
2022/12/21 04:45:09;;;;;;;76.97;30.08;;;;;;;;;;5056657;28;20082;-76
2022/12/21 04:47:35;;;;;;;81.57;28.27;;;;;;;;;;5054941;28;20032;-75
2022/12/21 04:50:01;;;;;;;68.15;28.58;;;;;;;;;;5055364;28;20040;-75
2022/12/21 04:52:27;;;;;;;60.97;27.25;;;;;;;;;;5055582;28;20029;-76
2022/12/21 04:54:53;;;;;;;67.70;27.70;;;;;;;;;;5056284;28;20029;-74
2022/12/21 04:57:19;;;;;;;59.58;24.58;;;;;;;;;;5061485;28;20033;-74
2022/12/21 04:59:45;;;;;;;51.28;22.73;;;;;;;;;;5057984;28;20044;-75
2022/12/21 05:02:11;;;;;;;58.35;23.17;;;;;;;;;;5057167;28;20040;-76
2022/12/21 05:04:37;;;;;;;58.88;21.95;;;;;;;;;;5056393;28;20474;-75
2022/12/21 05:07:03;;;;;;;58.15;21.48;;;;;;;;;;5055870;28;20036;-75
2022/12/21 05:09:29;;;;;;;57.15;21.48;;;;;;;;;;5056250;28;20044;-77
2022/12/21 05:11:55;;;;;;;53.92;19.48;;;;;;;;;;5055969;28;20025;-76
2022/12/21 05:14:22;;;;;;;48.50;18.92;;;;;;;;;;5060374;28;20021;-75
2022/12/21 05:16:48;;;;;;;48.35;20.33;;;;;;;;;;5074373;28;20013;-76
2022/12/21 05:19:15;;;;;;;54.95;19.80;;;;;;;;;;5076402;28;20017;-75
2022/12/21 05:21:41;;;;;;;51.53;19.52;;;;;;;;;;5077404;28;20016;-75
2022/12/21 05:24:07;;;;;;;47.45;18.50;;;;;;;;;;5076858;28;20025;-74
2022/12/21 05:26:33;;;;;;;49.65;18.08;;;;;;;;;;5063939;28;20052;-74
2022/12/21 05:28:59;;;;;;;55.22;19.50;;;;;;;;;;5063206;28;20009;-75
2022/12/21 05:31:25;;;;;;;49.20;19.65;;;;;;;;;;5061098;28;20405;-75
2022/12/21 05:33:52;;;;;;;57.70;20.48;;;;;;;;;;5058853;28;20025;-75
2022/12/21 05:36:18;;;;;;;53.88;20.48;;;;;;;;;;5055044;28;20027;-74
2022/12/21 05:38:44;;;;;;;55.45;21.35;;;;;;;;;;5056277;28;20413;-76
2022/12/21 05:41:11;;;;;;;70.47;24.05;;;;;;;;;;5061382;28;20033;-75
2022/12/21 05:43:37;;;;;;;65.30;23.20;;;;;;;;;;5057599;28;20024;-76
2022/12/21 05:46:04;;;;;;;61.25;22.52;;;;;;;;;;5057178;28;20035;-76
2022/12/21 05:48:30;;;;;;;50.53;20.27;;;;;;;;;;5056350;28;20120;-76
2022/12/21 05:50:56;;;;;;;58.38;22.75;;;;;;;;;;5056111;28;20033;-77
2022/12/21 05:53:22;;;;;;;57.67;21.25;;;;;;;;;;5057250;28;20026;-75
2022/12/21 05:55:48;;;;;;;76.57;21.65;;;;;;;;;;5054317;28;20036;-75
2022/12/21 05:58:15;;;;;;;61.03;22.42;;;;;;;;;;5053357;28;20021;-75
2022/12/21 06:00:41;;;;;;;57.95;22.15;;;;;;;;;;5055542;28;20460;-74
2022/12/21 06:03:07;;;;;;;57.92;22.40;;;;;;;;;;5059304;28;20377;-75
2022/12/21 06:05:37;;;;;;;59.85;23.00;;;;;;;;;;5053320;28;20028;-75
2022/12/21 06:08:03;;;;;;;67.10;23.42;;;;;;;;;;5064456;28;20032;-74
2022/12/21 06:10:29;;;;;;;60.40;22.27;;;;;;;;;;5061088;28;20025;-74
2022/12/21 06:12:55;;;;;;;55.85;22.05;;;;;;;;;;5059204;28;20029;-74
2022/12/21 06:15:22;;;;;;;55.15;22.73;;;;;;;;;;5060282;28;20025;-74
2022/12/21 06:17:48;;;;;;;59.90;22.08;;;;;;;;;;5057566;28;20028;-74
2022/12/21 06:20:15;;;;;;;67.40;23.10;;;;;;;;;;5055684;28;20179;-75
2022/12/21 06:22:41;;;;;;;62.47;21.75;;;;;;;;;;5054805;28;20024;-75
2022/12/21 06:25:07;;;;;;;76.65;24.00;;;;;;;;;;5055095;28;20029;-76
2022/12/21 06:27:33;;;;;;;61.75;21.83;;;;;;;;;;5058488;28;20124;-74
2022/12/21 06:29:59;;;;;;;64.93;24.58;;;;;;;;;;5047751;28;20041;-74
2022/12/21 06:32:26;;;;;;;67.53;24.02;;;;;;;;;;5050451;28;20433;-74
2022/12/21 06:34:52;;;;;;;61.42;23.75;;;;;;;;;;5057136;28;20528;-75
2022/12/21 06:37:18;;;;;;;59.60;22.67;;;;;;;;;;5054697;28;20033;-75
2022/12/21 06:39:44;;;;;;;58.30;21.52;;;;;;;;;;5054470;28;20025;-75
2022/12/21 06:42:10;;;;;;;51.15;21.05;;;;;;;;;;5056388;28;20124;-74
2022/12/21 06:44:36;;;;;;;45.75;18.95;;;;;;;;;;5053311;28;20527;-74
2022/12/21 06:47:02;;;;;;;54.33;18.85;;;;;;;;;;5053926;28;20048;-74
2022/12/21 06:49:28;;;;;;;41.55;18.50;;;;;;;;;;5052965;28;20124;-74
2022/12/21 06:51:54;;;;;;;47.28;18.98;;;;;;;;;;5053010;28;20032;-75
2022/12/21 06:54:20;;;;;;;43.88;17.38;;;;;;;;;;5053474;28;20029;-74
2022/12/21 06:56:46;;;;;;;51.75;17.95;;;;;;;;;;5053103;28;20035;-74
2022/12/21 06:59:12;;;;;;;85.13;17.35;;;;;;;;;;5055828;28;20033;-77
2022/12/21 07:01:38;;;;;;;28.20;15.88;;;;;;;;;;5055810;28;20040;-78
2022/12/21 07:04:04;;;;;;;35.53;17.20;;;;;;;;;;5056831;28;20052;-74
2022/12/21 07:06:31;;;;;;;85.15;24.35;;;;;;;;;;5067107;28;20024;-75
2022/12/21 07:08:57;;;;;;;54.92;17.23;;;;;;;;;;5068960;28;20398;-75
2022/12/21 07:11:24;;;;;;;62.60;16.60;;;;;;;;;;5066527;28;20021;-74
2022/12/21 07:13:54;;;;;;;53.47;17.63;;;;;;;;;;5067013;28;20135;-74
2022/12/21 07:16:20;;;;;;;49.33;18.25;;;;;;;;;;5072227;28;20029;-75
2022/12/21 07:18:47;;;;;;;38.95;19.00;;;;;;;;;;5071570;28;20029;-74
2022/12/21 07:21:14;;;;;;;53.78;19.73;;;;;;;;;;5071538;28;20055;-74
2022/12/21 07:23:40;;;;;;;39.03;18.50;;;;;;;;;;5074067;28;20046;-74
2022/12/21 07:26:11;;;;;;;43.03;20.98;;;;;;;;;;5073677;28;20048;-75
2022/12/21 07:28:37;;;;;;;79.25;18.73;;;;;;;;;;5049481;28;20024;-72
2022/12/21 07:31:04;;;;;;;53.42;18.20;;;;;;;;;;5066957;28;20065;-74
2022/12/21 07:33:30;;;;;;;43.47;19.48;;;;;;;;;;5070038;28;20020;-75
2022/12/21 07:36:04;;;;;;;54.05;20.02;;;;;;;;;;5069035;28;20028;-71
2022/12/21 07:38:31;;;;;;;43.55;19.77;;;;;;;;;;5063965;28;20025;-72
2022/12/21 07:40:57;;;;;;;42.08;20.13;;;;;;;;;;5063745;28;20029;-73
2022/12/21 07:43:24;;;;;;;46.05;20.33;;;;;;;;;;5067241;28;20017;-70
2022/12/21 07:45:51;;;;;;;46.60;19.80;;;;;;;;;;5074654;28;20052;-73
2022/12/21 07:48:17;;;;;;;40.95;20.50;;;;;;;;;;5079194;28;20024;-75
2022/12/21 07:50:45;;;;;;;58.53;22.45;;;;;;;;;;5079398;28;20037;-75
2022/12/21 07:53:11;;;;;;;53.95;21.25;;;;;;;;;;5077777;28;20032;-75
2022/12/21 07:55:37;;;;;;;53.45;22.42;;;;;;;;;;5070495;28;20080;-74
2022/12/21 07:58:03;;;;;;;50.25;21.85;;;;;;;;;;5075923;28;20013;-74
2022/12/21 08:00:29;;;;;;;51.10;22.67;;;;;;;;;;5073749;28;20036;-70
2022/12/21 08:02:55;;;;;;;50.97;22.15;;;;;;;;;;5069634;28;20032;-71
2022/12/21 08:05:21;;;;;;;47.28;22.27;;;;;;;;;;5072568;28;20093;-72
2022/12/21 08:07:47;;;;;;;46.00;21.25;;;;;;;;;;5074212;28;20028;-73
2022/12/21 08:10:14;;;;;;;46.35;21.48;;;;;;;;;;5076993;28;20029;-73
2022/12/21 08:12:40;;;;;;;54.35;22.25;;;;;;;;;;5075415;28;20067;-73
2022/12/21 08:15:06;;;;;;;53.15;20.00;;;;;;;;;;5076497;28;20086;-74
2022/12/21 08:17:32;;;;;;;40.35;20.73;;;;;;;;;;5072641;28;20036;-72
2022/12/21 08:19:58;;;;;;;48.17;20.02;;;;;;;;;;5067435;28;20097;-73
2022/12/21 08:22:24;;;;;;;44.92;20.02;;;;;;;;;;5062866;28;20524;-75
2022/12/21 08:24:51;;;;;;;49.80;19.65;;;;;;;;;;5066805;28;20036;-74
2022/12/21 08:27:17;;;;;;;37.22;19.85;;;;;;;;;;5072619;28;20033;-76
2022/12/21 08:29:43;;;;;;;39.78;20.73;;;;;;;;;;5069827;28;20020;-73
2022/12/21 08:32:09;;;;;;;44.05;20.95;;;;;;;;;;5060117;28;20040;-75
2022/12/21 08:34:35;;;;;;;51.58;23.83;;;;;;;;;;5055519;28;20017;-75
2022/12/21 08:37:01;;;;;;;44.05;22.65;;;;;;;;;;5058480;28;20029;-76
2022/12/21 08:39:27;;;;;;;53.60;24.40;;;;;;;;;;5059330;28;20024;-75
2022/12/21 08:41:53;;;;;;;40.40;22.23;;;;;;;;;;5058361;28;20501;-75
2022/12/21 08:44:19;;;;;;;44.35;21.45;;;;;;;;;;5056085;28;20028;-76
2022/12/21 08:46:45;;;;;;;69.75;22.20;;;;;;;;;;5055495;28;20029;-76
2022/12/21 08:49:11;;;;;;;47.25;22.08;;;;;;;;;;5055240;28;20394;-75
2022/12/21 08:51:38;;;;;;;50.05;22.35;;;;;;;;;;5057291;28;20029;-76
2022/12/21 08:54:06;;;;;;;44.63;21.77;;;;;;;;;;5056057;28;20099;-75
2022/12/21 08:56:32;;;;;;;45.72;22.25;;;;;;;;;;5054435;28;20025;-74
2022/12/21 08:59:02;;;;;;;44.92;21.50;;;;;;;;;;5054399;28;20021;-74
2022/12/21 09:01:28;;;;;;;51.38;22.52;;;;;;;;;;5055267;28;20389;-79
2022/12/21 09:03:54;;;;;;;55.30;22.38;;;;;;;;;;5054407;28;20025;-79
2022/12/21 09:06:20;;;;;;;70.43;32.80;;;;;;;;;;5060039;28;20557;-77
2022/12/21 09:08:46;;;;;;;51.78;24.02;;;;;;;;;;5055260;28;20069;-75
2022/12/21 09:11:13;;;;;;;52.65;22.88;;;;;;;;;;5054421;28;20029;-73
2022/12/21 09:13:39;;;;;;;53.05;23.33;;;;;;;;;;5054658;28;20055;-73
2022/12/21 09:16:11;;;;;;;57.10;25.23;;;;;;;;;;5055219;28;20025;-74
2022/12/21 09:18:37;;;;;;;51.88;24.00;;;;;;;;;;5054565;28;20021;-74
2022/12/21 09:21:03;;;;;;;55.60;24.70;;;;;;;;;;5056541;28;20531;-73
2022/12/21 09:23:29;;;;;;;51.13;23.98;;;;;;;;;;5060986;28;20033;-73
2022/12/21 09:25:55;;;;;;;58.35;23.98;;;;;;;;;;5056810;28;20067;-74
2022/12/21 09:28:21;;;;;;;51.22;22.55;;;;;;;;;;5065912;28;20132;-74
2022/12/21 09:30:47;;;;;;;57.75;22.58;;;;;;;;;;5059826;28;20066;-74
2022/12/21 09:33:13;;;;;;;52.53;22.58;;;;;;;;;;5065527;28;20051;-74
2022/12/21 09:35:39;;;;;;;43.97;22.00;;;;;;;;;;5068431;28;20221;-73
2022/12/21 09:38:05;;;;;;;57.15;24.45;;;;;;;;;;5073082;28;20029;-73
2022/12/21 09:40:32;;;;;;;52.08;24.42;;;;;;;;;;5067128;28;20021;-74
2022/12/21 09:43:17;;;;;;;51.00;22.98;;;;;;;;;;5065002;28;20092;-73
2022/12/21 09:46:00;;;;;;;47.08;22.08;;;;;;;;;;5063282;28;20029;-74
2022/12/21 09:48:30;;;;;;;47.67;21.98;;;;;;;;;;5063105;28;20085;-74
2022/12/21 09:50:57;;;;;;;50.58;21.90;;;;;;;;;;5064679;28;20103;-75
2022/12/21 09:53:34;;;;;;;46.70;22.42;;;;;;;;;;5066474;28;20025;-74
2022/12/21 09:56:00;;;;;;;44.05;21.63;;;;;;;;;;5067284;28;20032;-73
2022/12/21 09:58:33;;;;;;;50.00;21.75;;;;;;;;;;5067205;28;20017;-74
2022/12/21 10:01:07;;;;;;;42.08;21.02;;;;;;;;;;5059447;28;20017;-73
2022/12/21 10:04:03;;;;;;;48.10;22.23;;;;;;;;;;5058878;28;20021;-74
2022/12/21 10:06:29;;;;;;;;;;;;;;;;;;5056028;28;20036;-74
2022/12/21 10:09:02;;;;;;;47.47;21.02;;;;;;;;;;5061063;28;19911;-73
2022/12/21 10:11:36;;;;;;;48.95;21.73;;;;;;;;;;5062180;28;20025;-73
2022/12/21 10:14:02;;;;;;;49.72;23.75;;;;;;;;;;5064129;28;20021;-71
2022/12/21 10:16:34;;;;;;;49.95;22.23;;;;;;;;;;5061056;28;20025;-72
2022/12/21 10:19:16;;;;;;;55.50;22.25;;;;;;;;;;5061190;28;20355;-72
2022/12/21 10:22:15;;;;;;;51.58;22.40;;;;;;;;;;5054423;28;20119;-71
2022/12/21 10:24:44;;;;;;;53.53;23.77;;;;;;;;;;5030419;28;20542;-73
2022/12/21 10:27:29;;;;;;;55.55;25.55;;;;;;;;;;5052460;28;20025;-73
2022/12/21 10:29:57;;;;;;;56.45;23.65;;;;;;;;;;5053475;28;20283;-73
2022/12/21 10:32:24;;;;;;;61.40;26.00;;;;;;;;;;5051750;28;20482;-74
2022/12/21 10:34:53;;;;;;;56.72;24.52;;;;;;;;;;5053921;28;20529;-73
2022/12/21 10:37:21;;;;;;;57.00;25.50;;;;;;;;;;5051748;28;20455;-73
2022/12/21 10:39:48;;;;;;;56.80;25.00;;;;;;;;;;5053330;28;20470;-73
2022/12/21 10:42:20;;;;;;;52.22;24.52;;;;;;;;;;5051295;28;20060;-71
2022/12/21 10:44:47;;;;;;;62.67;26.90;;;;;;;;;;5052790;28;20083;-74
2022/12/21 10:47:14;;;;;;;52.42;25.30;;;;;;;;;;5054229;28;20025;-72
2022/12/21 10:49:40;;;;;;;68.55;26.83;;;;;;;;;;5054175;28;20044;-73
2022/12/21 10:52:25;;;;;;;58.40;25.80;;;;;;;;;;5053667;28;20021;-77
2022/12/21 10:54:51;;;;;;;63.42;27.17;;;;;;;;;;5053643;28;20444;-75
2022/12/21 10:57:16;;;;;;;60.17;27.40;;;;;;;;;;5052294;28;20025;-75
2022/12/21 10:59:43;;;;;;;65.57;27.55;;;;;;;;;;5053339;28;20151;-76
2022/12/21 11:02:29;;;;;;;66.60;28.90;;;;;;;;;;5054142;28;20105;-75
2022/12/21 11:04:55;;;;;;;62.67;27.40;;;;;;;;;;5053801;28;20390;-75
2022/12/21 11:07:29;;;;;;;69.95;28.13;;;;;;;;;;5053511;28;20029;-75
2022/12/21 11:10:15;;;;;;;73.40;29.80;;;;;;;;;;5058796;28;20029;-80
2022/12/21 11:12:48;;;;;;;74.47;29.23;;;;;;;;;;5058637;28;20033;-75
2022/12/21 11:15:19;;;;;;;71.38;29.77;;;;;;;;;;5074310;28;20021;-75
2022/12/21 11:17:45;;;;;;;75.80;29.88;;;;;;;;;;5070715;28;20049;-76
2022/12/21 11:20:16;;;;;;;71.78;29.77;;;;;;;;;;5066480;28;20028;-74
2022/12/21 11:22:44;;;;;;;75.78;29.20;;;;;;;;;;5075539;28;20071;-73
2022/12/21 11:25:14;;;;;;;78.65;31.55;;;;;;;;;;5061361;28;20039;-73
2022/12/21 11:27:44;;;;;;;73.47;29.35;;;;;;;;;;5066104;28;20048;-75
2022/12/21 11:30:17;;;;;;;70.82;29.50;;;;;;;;;;5064687;28;20110;-73
2022/12/21 11:32:44;;;;;;;78.18;29.70;;;;;;;;;;5055119;28;20044;-74
2022/12/21 11:35:24;;;;;;;69.50;29.25;;;;;;;;;;5050894;28;20435;-75
2022/12/21 11:38:16;;;;;;;73.88;30.20;;;;;;;;;;5057436;28;20017;-76
2022/12/21 11:40:55;;;;;;;81.28;31.20;;;;;;;;;;5055493;28;20483;-75
2022/12/21 11:43:21;;;;;;;65.40;29.15;;;;;;;;;;5063451;28;20109;-73
2022/12/21 11:45:56;;;;;;;78.30;34.00;;;;;;;;;;5062518;28;20021;-73
2022/12/21 11:48:35;;;;;;;75.95;33.78;;;;;;;;;;5062070;28;20055;-74
2022/12/21 11:51:07;;;;;;;68.20;28.38;;;;;;;;;;5065202;28;20025;-73
2022/12/21 11:53:52;;;;;;;66.15;28.88;;;;;;;;;;5059925;28;20027;-74
2022/12/21 11:56:26;;;;;;;66.57;28.17;;;;;;;;;;5058332;28;20056;-75
2022/12/21 11:59:12;;;;;;;63.83;28.38;;;;;;;;;;5054950;28;20033;-74
2022/12/21 12:01:54;;;;;;;68.05;28.70;;;;;;;;;;5051648;28;20028;-74
2022/12/21 12:04:29;;;;;;;62.40;28.20;;;;;;;;;;5055109;28;20072;-75
2022/12/21 12:07:00;;;;;;;67.20;28.50;;;;;;;;;;5045091;28;20034;-74
2022/12/21 12:09:36;;;;;;;66.40;29.25;;;;;;;;;;5055279;28;20057;-73
2022/12/21 12:12:08;;;;;;;72.22;30.25;;;;;;;;;;5051914;28;20028;-74
2022/12/21 12:14:52;;;;;;;74.00;30.02;;;;;;;;;;5051629;28;20017;-74
2022/12/21 12:17:27;;;;;;;71.22;30.35;;;;;;;;;;5050615;28;20028;-74
2022/12/21 12:19:53;;;;;;;71.97;30.25;;;;;;;;;;5048714;28;20029;-76
2022/12/21 12:22:19;;;;;;;79.43;37.97;;;;;;;;;;5053642;28;20079;-75
2022/12/21 12:24:45;;;;;;;75.97;31.95;;;;;;;;;;5054520;28;20080;-74
2022/12/21 12:27:20;;;;;;;71.78;31.27;;;;;;;;;;5054380;28;20133;-75
2022/12/21 12:29:49;;;;;;;76.22;32.17;;;;;;;;;;5055859;28;20025;-74
2022/12/21 12:32:26;;;;;;;69.68;32.83;;;;;;;;;;5057998;28;20565;-74
2022/12/21 12:34:55;;;;;;;70.97;32.40;;;;;;;;;;5056374;28;20494;-75
2022/12/21 12:37:23;;;;;;;73.40;32.78;;;;;;;;;;5054866;28;20328;-74
2022/12/21 12:39:49;;;;;;;78.43;33.15;;;;;;;;;;5056256;28;20096;-74
2022/12/21 12:42:26;;;;;;;81.45;33.67;;;;;;;;;;5055929;28;20450;-73
2022/12/21 12:45:14;;;;;;;84.60;35.38;;;;;;;;;;5056438;28;20466;-74
2022/12/21 12:47:49;;;;;;;83.03;35.33;;;;;;;;;;5055950;28;20389;-73
2022/12/21 12:50:18;;;;;;;81.63;35.60;;;;;;;;;;5056063;28;20032;-73
2022/12/21 12:52:57;;;;;;;97.55;36.30;;;;;;;;;;5056572;28;20095;-73
2022/12/21 12:55:38;;;;;;;91.65;37.15;;;;;;;;;;5056066;28;20076;-74
2022/12/21 12:58:07;;;;;;;95.75;37.22;;;;;;;;;;5056528;28;20035;-74
2022/12/21 13:00:46;;;;;;;90.25;36.50;;;;;;;;;;5056231;28;20044;-74
2022/12/21 13:03:31;;;;;;;89.75;38.22;;;;;;;;;;5055980;28;20037;-74
2022/12/21 13:06:15;;;;;;;96.07;37.75;;;;;;;;;;5056322;28;20099;-75
2022/12/21 13:08:41;;;;;;;86.72;34.72;;;;;;;;;;5057854;28;20584;-74
2022/12/21 13:11:30;;;;;;;94.63;37.08;;;;;;;;;;5058007;28;20025;-74
2022/12/21 13:14:08;;;;;;;98.65;37.15;;;;;;;;;;5056256;28;20033;-78
2022/12/21 13:16:40;;;;;;;93.95;36.65;;;;;;;;;;5057717;28;20025;-74
2022/12/21 13:19:08;;;;;;;85.50;34.85;;;;;;;;;;5056348;28;20071;-75
2022/12/21 13:21:36;;;;;;;99.45;35.20;;;;;;;;;;5055236;28;20037;-74
2022/12/21 13:24:15;;;;;;;89.28;30.50;;;;;;;;;;5053376;28;20447;-74
2022/12/21 13:26:49;;;;;;;89.22;32.22;;;;;;;;;;5054460;28;20534;-75
2022/12/21 13:29:15;;;;;;;92.75;32.10;;;;;;;;;;5055700;28;20479;-75
2022/12/21 13:31:41;;;;;;;84.15;31.83;;;;;;;;;;5053675;28;20036;-74
2022/12/21 13:34:12;;;;;;;92.78;32.25;;;;;;;;;;5048451;28;20079;-75
2022/12/21 13:36:40;;;;;;;93.78;32.45;;;;;;;;;;5055114;28;20108;-73
2022/12/21 13:39:27;;;;;;;98.70;32.95;;;;;;;;;;5053509;28;20059;-74
2022/12/21 13:41:56;;;;;;;93.65;33.35;;;;;;;;;;5055317;28;20128;-74
2022/12/21 13:44:35;;;;;;;111.72;42.15;;;;;;;;;;5055149;28;20394;-75
2022/12/21 13:47:01;;;;;;;94.10;33.10;;;;;;;;;;5054037;28;20116;-74
2022/12/21 13:49:49;;;;;;;83.72;30.80;;;;;;;;;;5054055;28;20108;-74
2022/12/21 13:52:15;;;;;;;101.93;31.20;;;;;;;;;;5054157;28;20028;-74
2022/12/21 13:54:41;;;;;;;84.07;30.13;;;;;;;;;;5056030;28;20036;-75
2022/12/21 13:57:13;;;;;;;86.15;30.73;;;;;;;;;;5058172;28;20029;-74
2022/12/21 13:59:58;;;;;;;93.30;33.15;;;;;;;;;;5057780;28;20048;-74
2022/12/21 14:02:45;;;;;;;89.40;32.53;;;;;;;;;;5059647;28;20029;-75
2022/12/21 14:05:14;;;;;;;87.80;32.35;;;;;;;;;;5066309;28;20029;-74
2022/12/21 14:07:43;;;;;;;97.65;33.47;;;;;;;;;;5055742;28;20025;-74
2022/12/21 14:10:27;;;;;;;84.43;30.48;;;;;;;;;;5049408;28;20092;-74
2022/12/21 14:12:53;;;;;;;87.30;29.65;;;;;;;;;;5061896;28;20638;-76
2022/12/21 14:15:42;;;;;;;86.15;31.17;;;;;;;;;;5059987;28;20068;-75
2022/12/21 14:18:10;;;;;;;84.78;31.05;;;;;;;;;;5057424;28;20025;-73
2022/12/21 14:20:37;;;;;;;90.20;32.70;;;;;;;;;;5040686;28;20104;-75
2022/12/21 14:23:07;;;;;;;86.18;31.00;;;;;;;;;;5050673;28;20390;-74
2022/12/21 14:25:35;;;;;;;86.63;31.10;;;;;;;;;;5035955;28;20099;-73
2022/12/21 14:28:01;;;;;;;94.82;32.33;;;;;;;;;;5053740;28;20029;-76
2022/12/21 14:30:29;;;;;;;86.72;31.98;;;;;;;;;;5055022;28;20158;-75
2022/12/21 14:32:57;;;;;;;100.53;32.85;;;;;;;;;;5054185;28;20033;-75
2022/12/21 14:35:24;;;;;;;100.53;32.72;;;;;;;;;;5074856;28;20036;-74
2022/12/21 14:38:08;;;;;;;88.40;31.10;;;;;;;;;;5075218;28;20401;-75
2022/12/21 14:40:54;;;;;;;109.95;35.20;;;;;;;;;;5063564;28;20028;-76
2022/12/21 14:43:20;;;;;;;102.70;34.67;;;;;;;;;;5056777;28;20033;-75